Time;durP1;ratioP1;P1;durP2;ratioP2;P2;SDS_P1;SDS_P2;PMS_P1;PMS_P2;Temp;Humidity;BMP_temperature;BMP_pressure;BME280_temperature;BME280_humidity;BME280_pressure;Samples;Min_cycle;Max_cycle;Signal;HPM_P1;HPM_P2
2023/10/16 00:01:54;;;;;;;;;;;;;;;;;;109220;1253;59922;-79
2023/10/16 00:04:21;;;;;;;;;;;;;;;;;;109210;1252;60125;-78
2023/10/16 00:06:49;;;;;;;;;;;;;;;;;;109215;1252;59903;-79
2023/10/16 00:09:21;;;;;;;;;;;;;;;;;;109165;1252;59859;-78
2023/10/16 00:11:48;;;;;;;;;;;;;;;;;;109178;1252;60408;-79
2023/10/16 00:14:23;;;;;;;;;;;;;;;;;;109218;1252;59804;-79
2023/10/16 00:16:50;;;;;;;;;;;;;;;;;;109206;1252;59849;-79
2023/10/16 00:19:17;;;;;;;;;;;;;;;;;;109201;1252;60022;-79
2023/10/16 00:21:46;;;;;;;;;;;;;;;;;;109175;1252;60170;-80
2023/10/16 00:24:12;;;;;;;;;;;;;;;;;;109151;1254;59787;-78
2023/10/16 00:26:48;;;;;;;;;;;;;;;;;;109193;1252;60335;-79
2023/10/16 00:29:35;;;;;;;;;;;;;;;;;;109305;1252;60205;-79
2023/10/16 00:32:02;;;;;;;;;;;;;;;;;;109179;1252;59863;-79
2023/10/16 00:34:28;;;;;;;;;;;;;;;;;;109163;1254;59850;-79
2023/10/16 00:36:55;;;;;;;;;;;;;;;;;;109208;1252;60521;-78
2023/10/16 00:39:22;;;;;;;;;;;;;;;;;;109187;1252;60427;-79
2023/10/16 00:41:51;;;;;;;;;;;;;;;;;;109187;1253;59939;-78
2023/10/16 00:44:18;;;;;;;;;;;;;;;;;;109196;1252;59935;-79
2023/10/16 00:46:50;;;;;;;;;;;;;;;;;;109284;1251;60217;-79
2023/10/16 00:49:19;;;;;;;;;;;;;;;;;;109387;1251;60138;-78
2023/10/16 00:51:46;;;;;;;;;;;;;;;;;;109363;1251;62769;-78
2023/10/16 00:54:18;;;;;;;;;;;;;;;;;;109415;1251;59906;-78
2023/10/16 00:56:44;;;;;;;;;;;;;;;;;;109375;1251;60994;-79
2023/10/16 00:59:15;;;;;;;;;;;;;;;;;;109333;1251;60293;-79
2023/10/16 01:01:43;;;;;;;;;;;;;;;;;;109409;1251;59858;-78
2023/10/16 01:04:09;;;;;;;;;;;;;;;;;;109322;1251;62489;-78
2023/10/16 01:06:41;;;;;;;;;;;;;;;;;;109186;1252;59884;-79
2023/10/16 01:09:22;;;;;;;;;;;;;;;;;;109183;1253;60841;-78
2023/10/16 01:11:48;;;;;;;;;;;;;;;;;;109078;1252;179604;-79
2023/10/16 01:14:15;;;;;;;;;;;;;;;;;;109192;1253;59850;-78
2023/10/16 01:16:43;;;;;;;;;;;;;;;;;;109192;1253;62734;-79
2023/10/16 01:19:09;;;;;;;;;;;;;;;;;;109160;1252;60380;-79
2023/10/16 01:21:36;;;;;;;;;;;;;;;;;;109137;1252;59921;-79
2023/10/16 01:24:16;;;;;;;;;;;;;;;;;;109150;1253;60371;-79
2023/10/16 01:26:42;;;;;;;;;;;;;;;;;;109206;1252;59938;-79
2023/10/16 01:29:09;;;;;;;;;;;;;;;;;;109188;1253;61429;-78
2023/10/16 01:31:36;;;;;;;;;;;;;;;;;;109197;1252;59841;-79
2023/10/16 01:34:03;;;;;;;;;;;;;;;;;;109154;1253;60382;-79
2023/10/16 01:36:30;;;;;;;;;;;;;;;;;;109181;1252;60414;-78
2023/10/16 01:39:06;;;;;;;;;;;;;;;;;;109217;1252;60257;-79
2023/10/16 01:41:32;;;;;;;;;;;;;;;;;;109190;1252;61194;-78
2023/10/16 01:44:03;;;;;;;;;;;;;;;;;;109188;1252;60030;-79
2023/10/16 01:46:29;;;;;;;;;;;;;;;;;;109285;1251;60337;-79
2023/10/16 01:49:00;;;;;;;;;;;;;;;;;;109317;1251;59846;-79
2023/10/16 01:51:30;;;;;;;;;;;;;;;;;;109324;1251;60071;-79
2023/10/16 01:53:56;;;;;;;;;;;;;;;;;;109345;1251;62637;-78
2023/10/16 01:56:22;;;;;;;;;;;;;;;;;;109334;1251;59906;-79
2023/10/16 01:58:49;;;;;;;;;;;;;;;;;;109365;1251;60154;-79
2023/10/16 02:01:16;;;;;;;;;;;;;;;;;;109197;1251;59943;-78
2023/10/16 02:03:45;;;;;;;;;;;;;;;;;;109349;1251;60526;-79
2023/10/16 02:06:11;;;;;;;;;;;;;;;;;;109216;1252;62811;-78
2023/10/16 02:08:38;;;;;;;;;;;;;;;;;;109194;1252;60525;-79
2023/10/16 02:11:06;;;;;;;;;;;;;;;;;;109195;1252;59859;-78
2023/10/16 02:13:35;;;;;;;;;;;;;;;;;;109176;1252;60382;-79
2023/10/16 02:16:02;;;;;;;;;;;;;;;;;;109202;1252;60039;-79
2023/10/16 02:18:36;;;;;;;;;;;;;;;;;;109186;1252;63428;-79
2023/10/16 02:21:02;;;;;;;;;;;;;;;;;;109172;1252;60466;-79
2023/10/16 02:23:31;;;;;;;;;;;;;;;;;;109183;1252;60695;-78
2023/10/16 02:25:59;;;;;;;;;;;;;;;;;;109204;1252;59716;-78
2023/10/16 02:28:25;;;;;;;;;;;;;;;;;;109217;1252;60505;-79
2023/10/16 02:30:52;;;;;;;;;;;;;;;;;;109164;1252;59834;-78
2023/10/16 02:35:48;;;;;;;;;;;;;;;;;;109178;1252;60464;-78
2023/10/16 02:38:14;;;;;;;;;;;;;;;;;;109186;1252;60290;-78
2023/10/16 02:40:44;;;;;;;;;;;;;;;;;;109174;1252;59917;-79
2023/10/16 02:43:14;;;;;;;;;;;;;;;;;;109213;1252;61178;-79
2023/10/16 02:45:46;;;;;;;;;;;;;;;;;;109239;1251;59798;-79
2023/10/16 02:48:16;;;;;;;;;;;;;;;;;;109341;1251;60296;-79
2023/10/16 02:50:42;;;;;;;;;;;;;;;;;;109319;1251;60165;-79
2023/10/16 02:53:09;;;;;;;;;;;;;;;;;;109353;1251;59831;-79
2023/10/16 02:55:35;;;;;;;;;;;;;;;;;;109363;1251;59804;-78
2023/10/16 02:58:04;;;;;;;;;;;;;;;;;;109354;1251;59909;-79
2023/10/16 03:00:38;;;;;;;;;;;;;;;;;;109375;1251;59897;-79
2023/10/16 03:03:07;;;;;;;;;;;;;;;;;;109403;1251;59749;-79
2023/10/16 03:05:33;;;;;;;;;;;;;;;;;;109257;1252;60022;-79
2023/10/16 03:08:00;;;;;;;;;;;;;;;;;;109225;1252;60567;-79
2023/10/16 03:10:30;;;;;;;;;;;;;;;;;;109198;1252;60416;-79
2023/10/16 03:13:00;;;;;;;;;;;;;;;;;;109194;1252;60362;-78
2023/10/16 03:15:30;;;;;;;;;;;;;;;;;;109156;1252;59917;-78
2023/10/16 03:17:56;;;;;;;;;;;;;;;;;;109217;1252;60495;-79
2023/10/16 03:20:35;;;;;;;;;;;;;;;;;;109207;1252;60339;-79
2023/10/16 03:23:06;;;;;;;;;;;;;;;;;;109144;1252;59917;-79
2023/10/16 03:28:08;;;;;;;;;;;;;;;;;;109163;1253;60512;-79
2023/10/16 03:30:34;;;;;;;;;;;;;;;;;;109174;1252;60387;-78
2023/10/16 03:33:03;;;;;;;;;;;;;;;;;;109179;1252;59900;-79
2023/10/16 03:35:30;;;;;;;;;;;;;;;;;;109230;1252;60377;-79
2023/10/16 03:37:56;;;;;;;;;;;;;;;;;;109161;1252;60115;-79
2023/10/16 03:40:24;;;;;;;;;;;;;;;;;;109171;1253;60414;-79
2023/10/16 03:42:51;;;;;;;;;;;;;;;;;;109217;1252;59760;-78
2023/10/16 03:45:20;;;;;;;;;;;;;;;;;;109210;1252;60414;-79
2023/10/16 03:47:46;;;;;;;;;;;;;;;;;;109368;1251;60141;-78
2023/10/16 03:50:13;;;;;;;;;;;;;;;;;;109327;1251;59803;-78
2023/10/16 03:52:40;;;;;;;;;;;;;;;;;;109352;1251;59889;-79
2023/10/16 03:55:22;;;;;;;;;;;;;;;;;;109352;1253;59812;-79
2023/10/16 03:57:50;;;;;;;;;;;;;;;;;;109369;1251;63389;-79
2023/10/16 04:00:18;;;;;;;;;;;;;;;;;;109367;1251;60422;-78
2023/10/16 04:02:44;;;;;;;;;;;;;;;;;;109326;1251;60465;-78
2023/10/16 04:07:56;;;;;;;;;;;;;;;;;;109182;1252;60481;-78
2023/10/16 04:10:28;;;;;;;;;;;;;;;;;;109183;1252;63047;-79
2023/10/16 04:12:55;;;;;;;;;;;;;;;;;;109195;1252;59820;-79
2023/10/16 04:18:04;;;;;;;;;;;;;;;;;;109178;1252;60522;-79
2023/10/16 04:20:43;;;;;;;;;;;;;;;;;;109215;1252;59782;-79
2023/10/16 04:23:29;;;;;;;;;;;;;;;;;;109139;1253;63450;-78
2023/10/16 04:29:24;;;;;;;;;;;;;;;;;;109173;1252;60772;-79
2023/10/16 04:36:53;;;;;;;;;;;;;;;;;;109166;1252;62755;-79
2023/10/16 04:44:49;;;;;;;;;;;;;;;;;;109191;1252;59867;-79
2023/10/16 04:47:19;;;;;;;;;;;;;;;;;;109319;1251;60187;-79
2023/10/16 04:49:59;;;;;;;;;;;;;;;;;;109357;1251;62383;-79
2023/10/16 04:55:22;;;;;;;;;;;;;;;;;;109353;1251;59859;-79
2023/10/16 04:57:53;;;;;;;;;;;;;;;;;;109356;1251;59867;-78
2023/10/16 05:00:54;;;;;;;;;;;;;;;;;;109327;1251;59955;-79
2023/10/16 05:03:24;;;;;;;;;;;;;;;;;;109321;1251;63358;-79
2023/10/16 05:06:02;;;;;;;;;;;;;;;;;;109296;1251;59856;-79
2023/10/16 05:16:35;;;;;;;;;;;;;;;;;;109189;1252;63397;-78
2023/10/16 06:14:09;;;;;;;;;;;;;;;;;;109183;1254;60161;-79
2023/10/16 06:16:38;;;;;;;;;;;;;;;;;;109179;1253;60544;-78
2023/10/16 06:19:14;;;;;;;;;;;;;;;;;;109187;1253;59891;-79
2023/10/16 06:21:45;;;;;;;;;;;;;;;;;;109220;1251;59764;-79
2023/10/16 06:24:25;;;;;;;;;;;;;;;;;;109276;1252;62965;-78
2023/10/16 06:26:51;;;;;;;;;;;;;;;;;;109258;1251;60108;-79
2023/10/16 06:29:18;;;;;;;;;;;;;;;;;;109256;1253;60564;-79
2023/10/16 06:31:53;;;;;;;;;;;;;;;;;;109266;1251;60497;-78
2023/10/16 06:34:19;;;;;;;;;;;;;;;;;;109174;1252;60108;-79
2023/10/16 06:36:45;;;;;;;;;;;;;;;;;;109167;1252;60400;-79
2023/10/16 06:39:28;;;;;;;;;;;;;;;;;;109181;1254;60092;-79
2023/10/16 06:41:55;;;;;;;;;;;;;;;;;;109204;1251;60804;-79
2023/10/16 06:44:28;;;;;;;;;;;;;;;;;;109173;1252;62118;-79
2023/10/16 06:46:58;;;;;;;;;;;;;;;;;;109213;1253;60270;-78
2023/10/16 06:49:26;;;;;;;;;;;;;;;;;;109277;1251;63414;-78
2023/10/16 06:51:53;;;;;;;;;;;;;;;;;;109488;1253;60013;-79
2023/10/16 06:54:19;;;;;;;;;;;;;;;;;;109411;1251;59685;-79
2023/10/16 06:56:45;;;;;;;;;;;;;;;;;;109374;1253;59727;-79
2023/10/16 06:59:16;;;;;;;;;;;;;;;;;;109378;1252;59722;-79
2023/10/16 07:01:46;;;;;;;;;;;;;;;;;;109463;1251;63427;-79
2023/10/16 07:04:13;;;;;;;;;;;;;;;;;;109397;1253;59715;-79
2023/10/16 07:06:39;;;;;;;;;;;;;;;;;;109217;1251;60498;-78
2023/10/16 07:09:05;;;;;;;;;;;;;;;;;;109276;1251;60486;-79
2023/10/16 07:11:32;;;;;;;;;;;;;;;;;;109163;1253;60514;-79
2023/10/16 07:13:58;;;;;;;;;;;;;;;;;;109123;1252;60381;-78
2023/10/16 07:16:25;;;;;;;;;;;;;;;;;;109104;1253;60673;-79
2023/10/16 07:18:57;;;;;;;;;;;;;;;;;;109128;1252;60405;-79
2023/10/16 07:21:25;;;;;;;;;;;;;;;;;;109157;1252;60254;-79
2023/10/16 07:23:54;;;;;;;;;;;;;;;;;;109175;1253;59885;-78
2023/10/16 07:26:24;;;;;;;;;;;;;;;;;;109221;1251;63632;-79
2023/10/16 07:28:51;;;;;;;;;;;;;;;;;;109313;1251;60223;-79
2023/10/16 07:31:17;;;;;;;;;;;;;;;;;;109203;1253;60368;-79
2023/10/16 07:33:44;;;;;;;;;;;;;;;;;;109221;1253;60526;-79
2023/10/16 07:36:11;;;;;;;;;;;;;;;;;;109213;1253;60062;-79
2023/10/16 07:38:38;;;;;;;;;;;;;;;;;;109136;1252;60570;-79
2023/10/16 07:41:04;;;;;;;;;;;;;;;;;;109240;1254;60164;-79
2023/10/16 07:43:32;;;;;;;;;;;;;;;;;;109160;1251;60741;-79
2023/10/16 07:48:40;;;;;;;;;;;;;;;;;;109236;1251;59872;-79
2023/10/16 07:51:07;;;;;;;;;;;;;;;;;;109249;1251;62594;-79
2023/10/16 07:53:34;;;;;;;;;;;;;;;;;;109125;1253;60213;-78
2023/10/16 07:56:02;;;;;;;;;;;;;;;;;;109178;1251;60714;-79
2023/10/16 07:58:34;;;;;;;;;;;;;;;;;;109304;1251;60117;-79
2023/10/16 08:03:41;;;;;;;;;;;;;;;;;;109168;1251;62868;-79
2023/10/16 08:06:12;;;;;;;;;;;;;;;;;;109189;1252;59792;-78
2023/10/16 08:08:38;;;;;;;;;;;;;;;;;;109145;1252;60780;-79
2023/10/16 08:11:12;;;;;;;;;;;;;;;;;;109215;1254;59943;-79
2023/10/16 08:13:46;;;;;;;;;;;;;;;;;;109178;1253;60292;-79
2023/10/16 08:16:12;;;;;;;;;;;;;;;;;;109137;1252;63789;-79
2023/10/16 08:18:40;;;;;;;;;;;;;;;;;;109158;1253;60168;-79
2023/10/16 08:21:08;;;;;;;;;;;;;;;;;;109205;1254;60464;-79
2023/10/16 08:23:34;;;;;;;;;;;;;;;;;;109220;1253;60125;-79
2023/10/16 08:26:04;;;;;;;;;;;;;;;;;;109250;1253;60415;-78
2023/10/16 08:28:42;;;;;;;;;;;;;;;;;;109143;1253;64059;-78
2023/10/16 08:31:24;;;;;;;;;;;;;;;;;;109059;1253;60364;-78
2023/10/16 08:33:50;;;;;;;;;;;;;;;;;;109141;1253;59963;-79
2023/10/16 08:36:18;;;;;;;;;;;;;;;;;;109151;1251;59953;-79
2023/10/16 08:38:52;;;;;;;;;;;;;;;;;;109268;1251;60445;-79
2023/10/16 08:41:18;;;;;;;;;;;;;;;;;;109191;1252;63123;-79
2023/10/16 08:43:54;;;;;;;;;;;;;;;;;;109251;1251;60562;-79
2023/10/16 08:46:34;;;;;;;;;;;;;;;;;;109212;1253;60468;-79
2023/10/16 08:49:02;;;;;;;;;;;;;;;;;;109183;1253;60398;-78
2023/10/16 08:51:28;;;;;;;;;;;;;;;;;;109208;1253;59950;-79
2023/10/16 08:53:59;;;;;;;;;;;;;;;;;;109182;1253;60479;-79
2023/10/16 08:56:25;;;;;;;;;;;;;;;;;;109264;1254;60231;-78
2023/10/16 08:58:54;;;;;;;;;;;;;;;;;;109214;1253;59868;-79
2023/10/16 09:01:23;;;;;;;;;;;;;;;;;;109214;1253;59897;-78
2023/10/16 09:03:50;;;;;;;;;;;;;;;;;;109240;1253;60417;-80
2023/10/16 09:06:17;;;;;;;;;;;;;;;;;;109217;1252;62428;-79
2023/10/16 09:08:45;;;;;;;;;;;;;;;;;;109235;1253;59857;-78
2023/10/16 09:11:16;;;;;;;;;;;;;;;;;;109306;1251;60678;-79
2023/10/16 09:13:45;;;;;;;;;;;;;;;;;;109222;1256;59862;-79
2023/10/16 09:16:11;;;;;;;;;;;;;;;;;;109201;1253;59893;-78
2023/10/16 09:18:37;;;;;;;;;;;;;;;;;;109248;1253;60310;-78
2023/10/16 09:21:13;;;;;;;;;;;;;;;;;;109177;1254;60580;-79
2023/10/16 09:23:39;;;;;;;;;;;;;;;;;;109321;1253;60259;-78
2023/10/16 09:26:06;;;;;;;;;;;;;;;;;;109240;1251;60184;-79
2023/10/16 09:28:33;;;;;;;;;;;;;;;;;;109216;1253;60333;-78
2023/10/16 09:31:02;;;;;;;;;;;;;;;;;;109182;1252;60166;-78
2023/10/16 09:33:28;;;;;;;;;;;;;;;;;;109172;1252;60448;-78
2023/10/16 09:36:00;;;;;;;;;;;;;;;;;;109297;1253;59856;-79
2023/10/16 09:38:32;;;;;;;;;;;;;;;;;;109214;1253;59948;-78
2023/10/16 09:41:13;;;;;;;;;;;;;;;;;;109292;1255;59850;-78
2023/10/16 09:43:40;;;;;;;;;;;;;;;;;;109241;1253;63366;-79
2023/10/16 09:46:21;;;;;;;;;;;;;;;;;;109168;1254;59847;-79
2023/10/16 09:48:48;;;;;;;;;;;;;;;;;;109191;1253;60722;-79
2023/10/16 09:51:14;;;;;;;;;;;;;;;;;;109249;1253;60437;-79
2023/10/16 09:53:41;;;;;;;;;;;;;;;;;;109282;1254;59776;-79
2023/10/16 09:56:09;;;;;;;;;;;;;;;;;;109244;1251;62674;-79
2023/10/16 09:58:35;;;;;;;;;;;;;;;;;;109189;1255;60530;-79
2023/10/16 10:01:09;;;;;;;;;;;;;;;;;;109259;1253;60232;-79
2023/10/16 10:03:36;;;;;;;;;;;;;;;;;;109183;1253;60402;-79
2023/10/16 10:09:21;;;;;;;;;;;;;;;;;;109341;1251;63431;-78
2023/10/16 10:11:39;;;;;;;;;;;;;;;;;;109236;1251;59910;-79
2023/10/16 10:14:26;;;;;;;;;;;;;;;;;;109273;1251;60018;-79
2023/10/16 10:16:56;;;;;;;;;;;;;;;;;;109155;1255;60007;-79
2023/10/16 10:19:31;;;;;;;;;;;;;;;;;;109186;1253;60403;-79
2023/10/16 10:21:57;;;;;;;;;;;;;;;;;;109197;1253;62637;-79
2023/10/16 10:24:24;;;;;;;;;;;;;;;;;;109244;1253;60005;-79
2023/10/16 10:26:50;;;;;;;;;;;;;;;;;;109205;1252;60545;-78
2023/10/16 10:29:20;;;;;;;;;;;;;;;;;;109203;1253;60598;-79
2023/10/16 10:31:47;;;;;;;;;;;;;;;;;;109233;1253;59801;-79
2023/10/16 10:34:13;;;;;;;;;;;;;;;;;;109249;1251;62518;-79
2023/10/16 10:36:39;;;;;;;;;;;;;;;;;;109148;1253;60291;-79
2023/10/16 10:39:06;;;;;;;;;;;;;;;;;;109205;1252;59901;-79
2023/10/16 10:41:33;;;;;;;;;;;;;;;;;;109103;1252;59948;-78
2023/10/16 10:44:08;;;;;;;;;;;;;;;;;;109171;1253;60498;-79
2023/10/16 10:46:35;;;;;;;;;;;;;;;;;;109069;1254;62579;-79
2023/10/16 10:49:01;;;;;;;;;;;;;;;;;;109175;1253;59944;-79
2023/10/16 10:51:35;;;;;;;;;;;;;;;;;;109175;1252;59858;-79
2023/10/16 10:54:06;;;;;;;;;;;;;;;;;;109180;1251;60503;-79
2023/10/16 10:56:32;;;;;;;;;;;;;;;;;;109202;1254;59759;-79
2023/10/16 10:59:08;;;;;;;;;;;;;;;;;;109166;1252;60422;-79
2023/10/16 11:01:37;;;;;;;;;;;;;;;;;;109217;1254;60492;-79
2023/10/16 11:04:15;;;;;;;;;;;;;;;;;;109239;1253;60360;-79
2023/10/16 11:06:48;;;;;;;;;;;;;;;;;;109130;1253;60465;-79
2023/10/16 11:09:18;;;;;;;;;;;;;;;;;;109214;1256;60419;-79
2023/10/16 11:11:45;;;;;;;;;;;;;;;;;;109218;1253;62293;-79
2023/10/16 11:14:12;;;;;;;;;;;;;;;;;;109185;1253;60061;-79
2023/10/16 11:16:40;;;;;;;;;;;;;;;;;;109184;1253;60555;-79
2023/10/16 11:19:09;;;;;;;;;;;;;;;;;;109222;1254;59882;-79
2023/10/16 11:21:36;;;;;;;;;;;;;;;;;;109146;1254;59915;-79
2023/10/16 11:24:05;;;;;;;;;;;;;;;;;;109199;1253;64123;-78
2023/10/16 11:26:32;;;;;;;;;;;;;;;;;;109101;1253;60040;-80
2023/10/16 11:29:00;;;;;;;;;;;;;;;;;;109117;1252;60502;-79
2023/10/16 11:31:26;;;;;;;;;;;;;;;;;;109139;1253;60792;-79
2023/10/16 11:34:03;;;;;;;;;;;;;;;;;;109198;1251;60500;-79
2023/10/16 11:36:29;;;;;;;;;;;;;;;;;;109421;1253;61240;-79
2023/10/16 11:38:56;;;;;;;;;;;;;;;;;;109200;1256;60380;-79
2023/10/16 11:41:24;;;;;;;;;;;;;;;;;;109266;1254;59972;-79
2023/10/16 11:43:54;;;;;;;;;;;;;;;;;;109169;1254;60464;-79
2023/10/16 11:46:33;;;;;;;;;;;;;;;;;;109190;1252;60146;-79
2023/10/16 11:49:17;;;;;;;;;;;;;;;;;;109185;1252;62990;-79
2023/10/16 11:51:45;;;;;;;;;;;;;;;;;;109291;1253;60459;-79
2023/10/16 11:54:11;;;;;;;;;;;;;;;;;;109274;1252;60296;-79
2023/10/16 11:56:38;;;;;;;;;;;;;;;;;;109021;1254;59935;-79
2023/10/16 11:59:09;;;;;;;;;;;;;;;;;;109179;1252;59875;-79
2023/10/16 12:01:35;;;;;;;;;;;;;;;;;;109232;1253;62512;-79
2023/10/16 12:04:02;;;;;;;;;;;;;;;;;;109233;1253;60287;-79
2023/10/16 12:06:29;;;;;;;;;;;;;;;;;;109202;1252;59848;-79
2023/10/16 12:08:55;;;;;;;;;;;;;;;;;;109202;1253;60542;-79
2023/10/16 12:11:22;;;;;;;;;;;;;;;;;;109311;1253;59842;-79
2023/10/16 12:13:48;;;;;;;;;;;;;;;;;;109204;1253;60453;-79
2023/10/16 12:16:16;;;;;;;;;;;;;;;;;;109206;1253;60517;-79
2023/10/16 12:18:43;;;;;;;;;;;;;;;;;;109189;1253;60378;-79
2023/10/16 12:21:12;;;;;;;;;;;;;;;;;;109327;1252;60337;-78
2023/10/16 12:23:38;;;;;;;;;;;;;;;;;;109231;1252;60486;-79
2023/10/16 12:26:05;;;;;;;;;;;;;;;;;;109201;1253;60445;-79
2023/10/16 12:28:31;;;;;;;;;;;;;;;;;;109203;1253;59844;-79
2023/10/16 12:30:58;;;;;;;;;;;;;;;;;;109172;1253;60000;-79
2023/10/16 12:33:27;;;;;;;;;;;;;;;;;;109198;1254;60311;-79
2023/10/16 12:35:56;;;;;;;;;;;;;;;;;;109227;1253;59895;-79
2023/10/16 12:38:23;;;;;;;;;;;;;;;;;;109298;1256;63974;-79
2023/10/16 12:40:53;;;;;;;;;;;;;;;;;;109227;1254;60468;-79
2023/10/16 12:43:20;;;;;;;;;;;;;;;;;;109147;1253;60109;-79
2023/10/16 12:45:47;;;;;;;;;;;;;;;;;;109172;1253;59831;-78
2023/10/16 12:48:14;;;;;;;;;;;;;;;;;;109173;1254;60352;-79
2023/10/16 12:50:40;;;;;;;;;;;;;;;;;;109226;1253;62357;-79
2023/10/16 12:53:08;;;;;;;;;;;;;;;;;;109168;1256;60113;-79
2023/10/16 12:55:35;;;;;;;;;;;;;;;;;;109148;1256;60295;-79
2023/10/16 12:58:03;;;;;;;;;;;;;;;;;;109152;1253;61071;-79
2023/10/16 13:00:30;;;;;;;;;;;;;;;;;;109170;1252;60534;-79
2023/10/16 13:02:58;;;;;;;;;;;;;;;;;;109145;1256;62783;-79
2023/10/16 13:05:26;;;;;;;;;;;;;;;;;;109248;1256;59830;-79
2023/10/16 13:07:52;;;;;;;;;;;;;;;;;;109254;1251;59824;-79
2023/10/16 13:10:26;;;;;;;;;;;;;;;;;;109263;1253;60251;-79
2023/10/16 13:12:53;;;;;;;;;;;;;;;;;;109117;1253;169321;-79
2023/10/16 13:15:25;;;;;;;;;;;;;;;;;;109219;1253;63634;-79
2023/10/16 13:17:52;;;;;;;;;;;;;;;;;;109263;1251;60515;-79
2023/10/16 13:20:18;;;;;;;;;;;;;;;;;;109266;1252;60173;-79
2023/10/16 13:22:44;;;;;;;;;;;;;;;;;;109218;1252;60541;-79
2023/10/16 13:25:13;;;;;;;;;;;;;;;;;;109235;1254;60515;-79
2023/10/16 13:27:40;;;;;;;;;;;;;;;;;;109223;1253;61566;-79
2023/10/16 13:30:06;;;;;;;;;;;;;;;;;;109200;1252;59845;-79
2023/10/16 13:32:32;;;;;;;;;;;;;;;;;;109194;1255;60462;-79
2023/10/16 13:35:00;;;;;;;;;;;;;;;;;;109137;1253;60404;-79
2023/10/16 13:37:26;;;;;;;;;;;;;;;;;;109205;1253;59828;-79
2023/10/16 13:39:53;;;;;;;;;;;;;;;;;;109195;1251;60170;-79
2023/10/16 13:42:20;;;;;;;;;;;;;;;;;;109258;1251;60208;-79
2023/10/16 13:44:47;;;;;;;;;;;;;;;;;;109235;1256;60420;-79
2023/10/16 13:47:13;;;;;;;;;;;;;;;;;;109186;1253;59848;-79
2023/10/16 13:49:42;;;;;;;;;;;;;;;;;;109202;1251;59847;-79
2023/10/16 13:52:09;;;;;;;;;;;;;;;;;;109282;1254;61503;-79
2023/10/16 13:54:35;;;;;;;;;;;;;;;;;;109306;1251;59932;-79
2023/10/16 13:57:01;;;;;;;;;;;;;;;;;;109166;1254;60401;-79
2023/10/16 13:59:28;;;;;;;;;;;;;;;;;;109139;1253;60436;-79
2023/10/16 14:01:56;;;;;;;;;;;;;;;;;;109176;1252;60173;-79
2023/10/16 14:04:25;;;;;;;;;;;;;;;;;;109169;1253;61249;-79
2023/10/16 14:06:51;;;;;;;;;;;;;;;;;;109140;1254;60538;-79
2023/10/16 14:09:27;;;;;;;;;;;;;;;;;;109082;1254;60447;-79
2023/10/16 14:11:53;;;;;;;;;;;;;;;;;;109120;1254;60476;-80
2023/10/16 14:14:20;;;;;;;;;;;;;;;;;;109147;1254;60527;-79
2023/10/16 14:16:46;;;;;;;;;;;;;;;;;;109137;1251;59940;-80
2023/10/16 14:19:14;;;;;;;;;;;;;;;;;;109099;1254;60683;-79
2023/10/16 14:21:41;;;;;;;;;;;;;;;;;;109129;1254;60474;-79
2023/10/16 14:24:07;;;;;;;;;;;;;;;;;;109097;1253;60644;-79
2023/10/16 14:26:34;;;;;;;;;;;;;;;;;;109156;1254;60626;-79
2023/10/16 14:29:00;;;;;;;;;;;;;;;;;;109199;1252;61385;-81
2023/10/16 14:31:28;;;;;;;;;;;;;;;;;;109101;1253;60519;-81
2023/10/16 14:33:54;;;;;;;;;;;;;;;;;;109173;1254;60231;-80
2023/10/16 14:36:24;;;;;;;;;;;;;;;;;;109151;1254;59874;-80
2023/10/16 14:38:51;;;;;;;;;;;;;;;;;;109305;1254;60473;-80
2023/10/16 14:41:17;;;;;;;;;;;;;;;;;;109174;1254;60599;-81
2023/10/16 14:43:46;;;;;;;;;;;;;;;;;;109225;1254;60504;-80
2023/10/16 14:46:13;;;;;;;;;;;;;;;;;;109180;1253;60415;-80
2023/10/16 14:48:42;;;;;;;;;;;;;;;;;;109226;1253;60460;-81
2023/10/16 14:51:12;;;;;;;;;;;;;;;;;;109284;1251;60295;-80
2023/10/16 14:53:39;;;;;;;;;;;;;;;;;;109205;1253;62844;-80
2023/10/16 14:56:08;;;;;;;;;;;;;;;;;;109239;1253;59905;-80
2023/10/16 14:58:35;;;;;;;;;;;;;;;;;;109237;1254;60689;-80
2023/10/16 15:01:14;;;;;;;;;;;;;;;;;;109231;1254;60189;-80
2023/10/16 15:03:41;;;;;;;;;;;;;;;;;;109192;1254;59747;-79
2023/10/16 15:06:08;;;;;;;;;;;;;;;;;;109250;1252;61234;-78
2023/10/16 15:08:35;;;;;;;;;;;;;;;;;;109216;1252;59801;-78
2023/10/16 15:11:01;;;;;;;;;;;;;;;;;;109237;1254;59798;-78
2023/10/16 15:13:28;;;;;;;;;;;;;;;;;;109162;1254;60426;-78
2023/10/16 15:15:58;;;;;;;;;;;;;;;;;;109198;1254;60513;-78
2023/10/16 15:18:24;;;;;;;;;;;;;;;;;;109152;1254;63858;-78
2023/10/16 15:20:50;;;;;;;;;;;;;;;;;;109156;1254;59911;-80
2023/10/16 15:23:17;;;;;;;;;;;;;;;;;;109225;1252;60102;-80
2023/10/16 15:25:45;;;;;;;;;;;;;;;;;;109241;1254;59836;-80
2023/10/16 15:28:16;;;;;;;;;;;;;;;;;;109295;1252;60154;-80
2023/10/16 15:30:44;;;;;;;;;;;;;;;;;;109273;1252;63482;-80
2023/10/16 15:33:10;;;;;;;;;;;;;;;;;;109281;1252;60319;-80
2023/10/16 15:35:38;;;;;;;;;;;;;;;;;;109243;1254;60183;-80
2023/10/16 15:38:08;;;;;;;;;;;;;;;;;;109268;1253;60381;-80
2023/10/16 15:40:34;;;;;;;;;;;;;;;;;;109231;1254;60482;-80
2023/10/16 15:43:01;;;;;;;;;;;;;;;;;;109216;1253;60276;-80
2023/10/16 15:45:27;;;;;;;;;;;;;;;;;;109241;1254;59921;-80
2023/10/16 15:47:54;;;;;;;;;;;;;;;;;;109367;1251;59919;-80
2023/10/16 15:50:20;;;;;;;;;;;;;;;;;;109414;1251;60178;-80
2023/10/16 15:52:46;;;;;;;;;;;;;;;;;;109241;1253;60475;-80
2023/10/16 15:55:17;;;;;;;;;;;;;;;;;;109273;1253;60316;-80
2023/10/16 15:57:46;;;;;;;;;;;;;;;;;;109295;1254;59869;-80
2023/10/16 16:00:12;;;;;;;;;;;;;;;;;;109235;1253;60716;-80
2023/10/16 16:02:38;;;;;;;;;;;;;;;;;;109237;1253;60116;-80
2023/10/16 16:05:05;;;;;;;;;;;;;;;;;;109217;1252;60139;-80
2023/10/16 16:07:31;;;;;;;;;;;;;;;;;;109241;1254;59829;-80
2023/10/16 16:09:59;;;;;;;;;;;;;;;;;;109245;1253;59841;-80
2023/10/16 16:12:25;;;;;;;;;;;;;;;;;;109234;1253;59735;-80
2023/10/16 16:14:52;;;;;;;;;;;;;;;;;;109203;1254;59891;-80
2023/10/16 16:17:18;;;;;;;;;;;;;;;;;;109238;1252;59854;-80
2023/10/16 16:19:44;;;;;;;;;;;;;;;;;;109271;1252;60558;-80
2023/10/16 16:22:11;;;;;;;;;;;;;;;;;;109231;1253;59917;-80
2023/10/16 16:24:37;;;;;;;;;;;;;;;;;;109238;1253;59856;-80
2023/10/16 16:27:03;;;;;;;;;;;;;;;;;;109243;1253;60514;-80
2023/10/16 16:29:30;;;;;;;;;;;;;;;;;;109256;1253;59983;-80
2023/10/16 16:31:57;;;;;;;;;;;;;;;;;;109263;1253;60220;-79
2023/10/16 16:34:24;;;;;;;;;;;;;;;;;;109246;1252;59939;-79
2023/10/16 16:36:50;;;;;;;;;;;;;;;;;;109228;1252;60454;-79
2023/10/16 16:39:18;;;;;;;;;;;;;;;;;;109228;1253;60449;-79
2023/10/16 16:52:44;;;;;;;;;;;;;;;;;;109307;1253;59875;-79
2023/10/16 16:55:10;;;;;;;;;;;;;;;;;;109357;1252;59784;-79
2023/10/16 16:57:36;;;;;;;;;;;;;;;;;;109226;1253;60625;-79
2023/10/16 17:00:04;;;;;;;;;;;;;;;;;;109353;1253;60095;-79
2023/10/16 17:02:30;;;;;;;;;;;;;;;;;;109327;1252;59889;-79
2023/10/16 17:04:58;;;;;;;;;;;;;;;;;;109353;1251;60300;-79
2023/10/16 17:07:24;;;;;;;;;;;;;;;;;;109371;1252;60021;-79
2023/10/16 17:09:51;;;;;;;;;;;;;;;;;;109357;1251;61759;-79
2023/10/16 17:12:19;;;;;;;;;;;;;;;;;;109352;1252;59830;-79
2023/10/16 17:14:46;;;;;;;;;;;;;;;;;;109339;1253;59940;-79
2023/10/16 17:17:12;;;;;;;;;;;;;;;;;;109337;1253;59923;-79
2023/10/16 17:19:39;;;;;;;;;;;;;;;;;;109347;1252;60480;-79
2023/10/16 17:22:05;;;;;;;;;;;;;;;;;;109357;1252;59813;-79
2023/10/16 17:24:31;;;;;;;;;;;;;;;;;;109305;1252;59883;-79
2023/10/16 17:26:58;;;;;;;;;;;;;;;;;;109322;1252;59839;-79
2023/10/16 17:29:24;;;;;;;;;;;;;;;;;;109345;1252;59933;-78
2023/10/16 17:31:54;;;;;;;;;;;;;;;;;;109289;1252;60509;-79
2023/10/16 17:34:24;;;;;;;;;;;;;;;;;;109340;1252;61658;-79
2023/10/16 17:39:59;;;;;;;;;;;;;;;;;;109319;1252;59881;-79
2023/10/16 17:42:25;;;;;;;;;;;;;;;;;;109335;1251;59825;-79
2023/10/16 17:44:52;;;;;;;;;;;;;;;;;;109407;1251;59943;-79
2023/10/16 17:47:18;;;;;;;;;;;;;;;;;;109337;1252;61648;-79
2023/10/16 17:49:44;;;;;;;;;;;;;;;;;;109358;1252;59873;-79
2023/10/16 17:52:12;;;;;;;;;;;;;;;;;;109313;1253;60742;-79
2023/10/16 17:54:40;;;;;;;;;;;;;;;;;;109156;1253;60320;-79
2023/10/16 17:57:07;;;;;;;;;;;;;;;;;;109329;1252;59939;-79
2023/10/16 17:59:34;;;;;;;;;;;;;;;;;;109310;1253;60331;-79
2023/10/16 18:02:02;;;;;;;;;;;;;;;;;;109314;1252;59835;-79
2023/10/16 18:04:29;;;;;;;;;;;;;;;;;;109321;1252;60095;-79
2023/10/16 18:06:55;;;;;;;;;;;;;;;;;;109322;1251;60402;-79
2023/10/16 18:09:27;;;;;;;;;;;;;;;;;;109326;1252;59878;-79
2023/10/16 18:11:56;;;;;;;;;;;;;;;;;;109360;1252;62395;-79
2023/10/16 18:14:22;;;;;;;;;;;;;;;;;;109324;1253;60166;-79
2023/10/16 18:16:49;;;;;;;;;;;;;;;;;;109311;1252;60847;-79
2023/10/16 18:19:17;;;;;;;;;;;;;;;;;;109325;1252;59888;-79
2023/10/16 18:21:47;;;;;;;;;;;;;;;;;;109338;1252;60555;-79
2023/10/16 18:24:13;;;;;;;;;;;;;;;;;;109332;1252;62426;-79
2023/10/16 18:26:39;;;;;;;;;;;;;;;;;;109312;1252;59762;-79
2023/10/16 18:29:11;;;;;;;;;;;;;;;;;;109262;1252;60265;-79
2023/10/16 18:31:39;;;;;;;;;;;;;;;;;;109238;1252;60578;-79